Time;durP1;ratioP1;P1;durP2;ratioP2;P2;SDS_P1;SDS_P2;PMS_P1;PMS_P2;Temp;Humidity;BMP_temperature;BMP_pressure;BME280_temperature;BME280_humidity;BME280_pressure;Samples;Min_cycle;Max_cycle;Signal;HPM_P1;HPM_P2
2024/02/23 07:30:17;;;;;;;2.03;0.70;;;;;;;;;;2076088;27;20572;-60
2024/02/23 07:47:29;;;;;;;3.35;0.88;;;;;;;;;;2083597;28;20582;-60
2024/02/23 07:51:21;;;;;;;5.93;1.70;;;;;;;;;;2082751;28;20557;-60
2024/02/23 07:54:14;;;;;;;4.90;2.10;;;;;;;3.01;86.01;94824.38;2083115;28;20572;-61
2024/02/23 07:58:54;;;;;;;5.28;1.38;;;;;;;3.34;84.75;94839.25;2082586;28;20579;-60
2024/02/23 08:02:56;;;;;;;5.30;1.55;;;;;;;-145.49;0.00;81399.16;2084647;28;20953;-63
2024/02/23 08:03:58;;;;;;;5.88;1.92;;;;;;;-145.49;0.00;81399.16;2081857;28;21134;-62
2024/02/23 08:04:59;;;;;;;7.55;2.90;;;;;;;-145.49;0.00;81399.16;2077920;28;20247;-62
2024/02/23 08:06:01;;;;;;;5.97;1.90;;;;;;;-145.49;0.00;81399.16;2072907;28;20244;-63
2024/02/23 08:08:42;;;;;;;8.80;1.60;;;;;;;3.94;80.74;94830.50;2084776;28;20567;-60
2024/02/23 08:09:44;;;;;;;5.45;2.30;;;;;;;4.85;78.97;94851.03;2077111;28;20494;-62
2024/02/23 08:10:45;;;;;;;5.35;1.48;;;;;;;5.22;77.12;94844.00;2073977;28;20656;-62
2024/02/23 08:11:47;;;;;;;4.90;2.20;;;;;;;5.12;76.18;94851.41;2073042;28;20201;-63
2024/02/23 08:12:49;;;;;;;8.45;2.83;;;;;;;5.31;76.53;94855.63;2073375;28;20323;-63
2024/02/23 08:13:50;;;;;;;8.07;1.98;;;;;;;6.14;73.39;94814.88;2070220;28;20224;-62
2024/02/23 08:14:53;;;;;;;2.90;1.20;;;;;;;6.59;71.23;94853.00;2072870;28;20640;-63
2024/02/23 08:15:55;;;;;;;8.00;2.15;;;;;;;7.04;69.66;94851.25;2071981;28;20293;-63
2024/02/23 08:16:56;;;;;;;8.50;2.40;;;;;;;6.93;69.99;94853.63;2071691;28;20198;-63
2024/02/23 08:17:58;;;;;;;3.42;1.30;;;;;;;7.35;68.47;94849.41;2074092;28;20298;-63
2024/02/23 08:18:59;;;;;;;8.68;1.10;;;;;;;6.66;69.56;94849.97;2073358;28;20651;-63
2024/02/23 08:20:07;;;;;;;7.07;1.42;;;;;;;6.80;69.71;94853.53;2073632;28;20233;-63
2024/02/23 08:21:10;;;;;;;4.55;1.38;;;;;;;6.78;69.71;94850.19;2073412;28;20213;-70
2024/02/23 08:22:12;;;;;;;4.13;1.08;;;;;;;6.43;68.89;94845.28;2072009;28;20251;-70
2024/02/23 08:23:13;;;;;;;6.20;1.58;;;;;;;5.97;70.77;94843.47;2070363;28;20198;-70
2024/02/23 08:24:15;;;;;;;4.45;0.80;;;;;;;5.70;72.29;94844.03;2070709;28;20332;-70
2024/02/23 08:25:16;;;;;;;3.33;1.30;;;;;;;6.05;71.12;94844.72;2073448;28;20881;-70
2024/02/23 08:26:18;;;;;;;6.95;1.42;;;;;;;6.28;70.76;94852.16;2076737;28;20233;-70
2024/02/23 08:27:20;;;;;;;6.53;1.98;;;;;;;6.67;69.98;94849.03;2074386;28;20265;-70
2024/02/23 08:28:22;;;;;;;4.40;1.10;;;;;;;6.81;68.66;94848.25;2072748;28;20229;-70
2024/02/23 08:29:25;;;;;;;2.78;0.98;;;;;;;7.31;67.99;94846.19;2072986;28;20204;-71
2024/02/23 08:30:27;;;;;;;8.32;1.45;;;;;;;7.67;67.19;94829.25;2074453;28;20285;-70
2024/02/23 08:31:28;;;;;;;4.63;1.10;;;;;;;7.56;66.85;94844.66;2073764;28;20194;-70
2024/02/23 08:32:30;;;;;;;4.25;1.50;;;;;;;6.92;68.28;94836.41;2070321;28;20393;-70
2024/02/23 08:33:31;;;;;;;4.80;1.10;;;;;;;6.45;69.27;94840.81;2071234;28;20218;-71
2024/02/23 08:34:34;;;;;;;3.15;1.05;;;;;;;6.45;69.68;94838.22;2069485;28;20205;-70
2024/02/23 08:35:35;;;;;;;2.70;1.30;;;;;;;7.01;69.23;94836.69;2073842;28;20197;-70
2024/02/23 08:36:37;;;;;;;4.70;1.08;;;;;;;7.70;66.65;94841.22;2070344;28;20198;-70
2024/02/23 08:37:38;;;;;;;2.40;0.95;;;;;;;7.17;67.04;94831.44;2071156;28;20248;-70
2024/02/23 08:38:40;;;;;;;5.72;1.80;;;;;;;6.98;67.74;94830.84;2073477;28;20628;-70
2024/02/23 08:39:42;;;;;;;4.30;1.65;;;;;;;6.46;68.73;94821.75;2070834;28;20297;-70
2024/02/23 08:40:45;;;;;;;7.28;2.00;;;;;;;6.20;70.37;94821.50;2077725;28;20197;-70
2024/02/23 08:41:46;;;;;;;5.93;1.55;;;;;;;6.33;70.41;94816.44;2077557;28;20233;-70
2024/02/23 08:42:49;;;;;;;10.60;3.50;;;;;;;6.83;68.98;94806.63;2081931;28;20201;-70
2024/02/23 08:43:51;;;;;;;3.05;1.00;;;;;;;6.32;69.17;94810.44;2080693;28;20193;-70
2024/02/23 08:44:54;;;;;;;9.07;1.60;;;;;;;5.83;70.20;94805.38;2073094;28;20224;-70
2024/02/23 08:45:56;;;;;;;4.53;1.35;;;;;;;5.52;71.65;94802.72;2074977;28;20200;-70
2024/02/23 08:47:02;;;;;;;8.80;1.95;;;;;;;5.45;72.16;94801.34;2073351;28;20255;-70
2024/02/23 08:48:04;;;;;;;6.95;1.02;;;;;;;5.64;72.17;94800.38;2074291;28;20202;-70
2024/02/23 08:49:06;;;;;;;6.78;1.38;;;;;;;5.66;72.18;94791.59;2072081;28;20672;-70
2024/02/23 08:50:07;;;;;;;7.85;1.95;;;;;;;5.37;72.84;94782.81;2074747;28;20237;-70
2024/02/23 08:51:09;;;;;;;6.95;0.85;;;;;;;5.44;72.48;94788.50;2070306;28;20301;-70
2024/02/23 08:52:10;;;;;;;1.90;0.90;;;;;;;5.15;73.22;94786.53;2071512;28;20649;-70
2024/02/23 08:53:12;;;;;;;4.30;1.20;;;;;;;4.75;74.37;94775.69;2071707;28;20265;-70
2024/02/23 08:54:13;;;;;;;7.05;1.40;;;;;;;4.78;74.25;94790.22;2072587;28;20233;-70
2024/02/23 08:55:15;;;;;;;5.28;1.20;;;;;;;4.92;75.57;94792.09;2069342;28;20283;-70
2024/02/23 08:56:16;;;;;;;5.63;1.42;;;;;;;5.07;74.30;94781.75;2070174;28;20203;-70
2024/02/23 08:57:19;;;;;;;7.78;0.95;;;;;;;5.90;72.41;94778.19;2074041;28;20607;-71
2024/02/23 08:58:21;;;;;;;7.45;1.20;;;;;;;6.23;72.59;94785.00;2072909;28;20206;-71
2024/02/23 08:59:23;;;;;;;2.25;1.10;;;;;;;6.41;71.31;94792.66;2071405;28;20205;-71
2024/02/23 09:00:24;;;;;;;5.13;1.05;;;;;;;6.72;70.13;94796.06;2074026;28;20210;-71
2024/02/23 09:01:26;;;;;;;4.80;0.90;;;;;;;7.40;68.10;94798.00;2073888;28;20845;-71
2024/02/23 09:02:28;;;;;;;3.50;0.73;;;;;;;7.17;67.91;94799.44;2073736;28;20197;-70
2024/02/23 09:03:29;;;;;;;3.47;0.70;;;;;;;7.22;67.07;94799.16;2074586;28;20199;-70
2024/02/23 09:04:31;;;;;;;6.38;0.93;;;;;;;7.19;66.96;94800.19;2073559;28;20719;-70
2024/02/23 09:05:33;;;;;;;8.52;1.20;;;;;;;7.45;66.67;94787.34;2072456;28;20201;-70
2024/02/23 09:06:34;;;;;;;3.83;1.15;;;;;;;7.34;66.05;94791.44;2072728;28;20194;-70
2024/02/23 09:07:40;;;;;;;3.45;1.17;;;;;;;8.44;64.39;94781.09;2073177;28;20685;-71
2024/02/23 09:08:42;;;;;;;8.63;1.10;;;;;;;8.72;63.49;94789.69;2074119;28;20216;-71
2024/02/23 09:09:43;;;;;;;7.70;0.98;;;;;;;9.03;62.52;94791.06;2072094;28;20230;-70
2024/02/23 09:10:45;;;;;;;7.45;1.20;;;;;;;9.88;60.51;94794.78;2073653;28;20201;-70
2024/02/23 09:11:46;;;;;;;4.15;0.90;;;;;;;9.33;60.35;94802.91;2075071;28;20201;-70
2024/02/23 09:12:48;;;;;;;3.63;1.02;;;;;;;9.63;60.13;94812.97;2075098;28;20201;-70
2024/02/23 09:13:49;;;;;;;5.05;1.30;;;;;;;10.07;58.56;94809.97;2073059;28;20194;-70
2024/02/23 09:14:51;;;;;;;4.22;1.00;;;;;;;9.53;58.95;94816.34;2068187;28;20221;-70
2024/02/23 09:15:53;;;;;;;3.25;0.82;;;;;;;9.80;58.91;94809.19;2073505;28;20202;-70
2024/02/23 09:16:54;;;;;;;3.30;1.00;;;;;;;9.54;59.59;94805.81;2071299;28;20202;-70
2024/02/23 09:17:56;;;;;;;3.67;0.80;;;;;;;10.63;58.17;94814.63;2071734;28;20668;-70
2024/02/23 09:18:57;;;;;;;10.18;1.50;;;;;;;10.55;57.42;94815.19;2073756;28;20792;-70
2024/02/23 09:19:59;;;;;;;2.30;0.80;;;;;;;10.76;56.35;94814.53;2069348;28;20220;-71
2024/02/23 09:21:01;;;;;;;11.82;1.25;;;;;;;9.64;58.16;94792.97;2068210;28;20200;-72
2024/02/23 09:22:03;;;;;;;5.78;1.10;;;;;;;10.65;58.47;94812.72;2067700;28;20201;-70
2024/02/23 09:23:04;;;;;;;3.28;1.00;;;;;;;9.94;58.78;94820.41;2068679;28;20197;-70
2024/02/23 09:24:06;;;;;;;5.90;0.98;;;;;;;9.24;61.21;94821.78;2067560;28;20235;-70
2024/02/23 09:25:08;;;;;;;6.22;1.00;;;;;;;8.79;61.72;94817.81;2059501;28;20645;-70
2024/02/23 09:26:13;;;;;;;7.32;1.10;;;;;;;10.01;60.44;94826.88;2068209;28;20714;-64
2024/02/23 09:27:15;;;;;;;6.93;1.70;;;;;;;9.02;59.98;94825.84;2067901;28;20813;-63
2024/02/23 09:28:16;;;;;;;6.07;1.92;;;;;;;7.90;62.23;94833.94;2068221;28;20203;-63
2024/02/23 09:29:18;;;;;;;6.38;3.50;;;;;;;7.35;64.76;94824.28;2068304;28;20297;-63
2024/02/23 09:30:19;;;;;;;8.73;1.67;;;;;;;7.40;66.33;94825.75;2067717;28;20824;-63
2024/02/23 09:31:21;;;;;;;3.35;1.10;;;;;;;7.47;65.80;94838.28;2064387;28;20194;-63
2024/02/23 09:32:22;;;;;;;4.65;1.48;;;;;;;7.16;66.12;94823.72;2064533;28;20198;-63
2024/02/23 09:33:24;;;;;;;6.65;1.10;;;;;;;6.80;66.09;94830.19;2066636;28;20282;-63
2024/02/23 09:34:26;;;;;;;4.00;1.00;;;;;;;6.72;66.36;94822.84;2067012;28;20784;-63
2024/02/23 09:35:28;;;;;;;3.40;0.90;;;;;;;6.46;67.96;94821.75;2067817;28;20209;-63
2024/02/23 09:36:30;;;;;;;5.03;1.10;;;;;;;6.20;68.54;94827.50;2068956;28;20498;-63
2024/02/23 09:37:31;;;;;;;3.90;1.02;;;;;;;6.08;69.34;94817.81;2068010;28;20232;-63
2024/02/23 09:38:33;;;;;;;5.65;0.90;;;;;;;6.42;69.21;94830.63;2067713;28;20289;-63
2024/02/23 09:39:34;;;;;;;7.18;1.23;;;;;;;6.18;69.27;94818.13;2071200;28;20198;-70
2024/02/23 09:40:36;;;;;;;11.25;1.25;;;;;;;6.16;69.57;94822.59;2071562;28;20195;-70
2024/02/23 09:41:39;;;;;;;6.82;0.95;;;;;;;6.23;70.47;94829.06;2068363;28;20205;-70
2024/02/23 09:42:41;;;;;;;7.90;1.20;;;;;;;6.13;72.36;94820.16;2066512;28;20256;-70
2024/02/23 09:43:45;;;;;;;3.55;1.33;;;;;;;5.94;72.32;94835.84;2067754;28;20209;-69
2024/02/23 09:44:52;;;;;;;6.13;1.00;;;;;;;5.58;72.01;94830.00;2067531;28;20227;-62
2024/02/23 09:45:53;;;;;;;4.90;1.40;;;;;;;5.32;73.96;94821.88;2065716;28;20194;-61
2024/02/23 09:46:55;;;;;;;4.97;0.90;;;;;;;5.42;73.77;94827.41;2064949;28;20229;-61
2024/02/23 09:47:57;;;;;;;8.93;1.27;;;;;;;5.16;74.81;94831.38;2068557;28;20719;-61
2024/02/23 09:49:00;;;;;;;6.70;1.00;;;;;;;5.30;75.16;94825.47;2068119;28;20666;-61
2024/02/23 09:50:06;;;;;;;4.93;1.00;;;;;;;4.99;74.92;94837.41;2063814;28;20884;-61
2024/02/23 09:51:10;;;;;;;4.38;0.90;;;;;;;4.89;75.04;94845.66;2065444;28;20199;-61
2024/02/23 09:52:12;;;;;;;3.83;1.42;;;;;;;4.87;74.97;94834.53;2066920;28;20276;-61
2024/02/23 09:53:14;;;;;;;6.07;1.35;;;;;;;4.66;75.74;94833.03;2064688;28;20213;-60
2024/02/23 09:54:15;;;;;;;2.55;0.98;;;;;;;4.64;76.59;94835.69;2067008;28;20281;-61
2024/02/23 09:55:23;;;;;;;8.13;1.10;;;;;;;4.67;77.62;94842.47;2066722;28;20761;-61
2024/02/23 09:56:28;;;;;;;5.32;0.90;;;;;;;4.70;76.82;94839.75;2067211;28;20205;-61
2024/02/23 09:57:30;;;;;;;2.92;0.90;;;;;;;4.65;76.81;94844.31;2064253;28;20814;-61
2024/02/23 09:58:34;;;;;;;5.75;1.60;;;;;;;4.48;77.24;94821.88;2064728;28;20198;-61
2024/02/23 09:59:36;;;;;;;3.17;1.10;;;;;;;4.70;77.52;94837.97;2064902;28;20672;-61
2024/02/23 10:00:38;;;;;;;3.60;1.05;;;;;;;4.60;77.88;94818.69;2066496;28;20715;-61
2024/02/23 10:01:39;;;;;;;7.18;1.58;;;;;;;4.72;78.30;94837.91;2066250;28;20264;-61
2024/02/23 10:02:42;;;;;;;3.17;0.90;;;;;;;4.67;77.87;94837.28;2064065;28;20206;-61
2024/02/23 10:03:45;;;;;;;3.60;1.10;;;;;;;4.54;78.04;94835.31;2068608;28;20233;-61
2024/02/23 10:04:48;;;;;;;10.18;1.17;;;;;;;4.51;78.08;94839.81;2065754;28;20229;-61
2024/02/23 10:05:49;;;;;;;8.95;0.95;;;;;;;4.54;79.16;94839.66;2066901;28;20209;-60
2024/02/23 10:06:51;;;;;;;8.57;1.20;;;;;;;4.46;78.61;94846.97;2069561;28;20626;-67
2024/02/23 10:07:53;;;;;;;6.72;1.23;;;;;;;4.13;79.32;94837.38;2066415;28;20592;-68
2024/02/23 10:08:55;;;;;;;3.78;0.93;;;;;;;4.05;80.17;94848.03;2065802;28;20309;-68
2024/02/23 10:14:41;;;;;;;10.93;1.15;;;;;;;4.07;80.92;94848.81;2081153;28;21109;-68
2024/02/23 10:15:43;;;;;;;4.20;1.13;;;;;;;4.03;81.47;94837.78;2074854;28;20297;-69
2024/02/23 10:17:06;;;;;;;6.45;1.25;;;;;;;4.24;80.34;94842.81;2080674;28;20208;-69
2024/02/23 10:18:08;;;;;;;5.47;1.20;;;;;;;4.13;80.36;94834.78;2083442;28;20285;-70
2024/02/23 10:19:09;;;;;;;4.35;1.05;;;;;;;4.02;80.21;94838.69;2079924;28;20193;-69
2024/02/23 10:20:11;;;;;;;4.25;1.20;;;;;;;3.94;80.34;94840.81;2081571;28;20707;-69
2024/02/23 10:21:13;;;;;;;8.77;1.00;;;;;;;4.06;80.10;94835.06;2080813;28;20204;-69
2024/02/23 10:22:14;;;;;;;7.07;0.98;;;;;;;4.01;80.30;94842.22;2080843;28;20754;-69
2024/02/23 10:23:16;;;;;;;8.45;2.25;;;;;;;4.51;79.87;94845.00;2078691;28;20205;-69
2024/02/23 10:24:19;;;;;;;9.10;1.13;;;;;;;4.78;78.33;94840.19;2079610;28;20240;-69
2024/02/23 10:25:20;;;;;;;5.13;1.10;;;;;;;4.72;78.19;94837.91;2081317;28;20216;-69
2024/02/23 10:26:22;;;;;;;4.25;0.90;;;;;;;4.93;77.19;94837.72;2081690;28;20201;-69
2024/02/23 10:27:24;;;;;;;6.68;1.05;;;;;;;4.87;76.01;94800.09;2080070;28;20438;-69
2024/02/23 10:28:27;;;;;;;7.68;1.73;;;;;;;5.71;74.86;94846.56;2080427;28;20884;-69
2024/02/23 10:29:30;;;;;;;6.22;1.27;;;;;;;6.30;73.86;94845.13;2078866;28;20192;-68
2024/02/23 10:30:32;;;;;;;10.10;1.38;;;;;;;6.43;72.43;94850.47;2080520;28;20590;-69
2024/02/23 10:31:39;;;;;;;2.15;1.10;;;;;;;5.97;72.68;94848.66;2074826;28;20224;-64
2024/02/23 10:32:41;;;;;;;6.05;1.17;;;;;;;6.70;72.40;94843.69;2077634;28;20208;-63
2024/02/23 10:33:44;;;;;;;3.30;1.25;;;;;;;6.95;70.47;94844.00;2077463;28;20265;-63
2024/02/23 10:34:49;;;;;;;5.78;0.90;;;;;;;6.09;70.39;94848.00;2075817;28;20671;-63
2024/02/23 10:35:57;;;;;;;7.45;1.33;;;;;;;5.61;73.91;94850.56;2081487;28;20563;-62
2024/02/23 10:36:59;;;;;;;5.00;1.10;;;;;;;5.70;74.19;94841.44;2080983;28;20194;-63
2024/02/23 10:38:01;;;;;;;7.30;1.50;;;;;;;5.19;74.39;94846.72;2077210;28;20204;-63
2024/02/23 10:39:04;;;;;;;9.80;1.30;;;;;;;5.28;75.15;94850.59;2082028;28;20193;-63
2024/02/23 10:40:10;;;;;;;6.50;1.63;;;;;;;5.18;74.55;94876.97;2080769;28;20472;-64
2024/02/23 10:41:13;;;;;;;3.85;1.10;;;;;;;5.03;75.68;94860.47;2081068;28;20196;-63
2024/02/23 10:42:21;;;;;;;8.63;1.30;;;;;;;4.63;76.01;94852.13;2082531;28;20215;-63
2024/02/23 10:43:30;;;;;;;4.60;0.93;;;;;;;4.62;76.61;94862.53;2078529;28;20197;-63
2024/02/23 10:44:32;;;;;;;6.68;1.40;;;;;;;4.55;76.62;94849.09;2074838;28;20268;-62
2024/02/23 10:45:36;;;;;;;6.78;1.33;;;;;;;4.48;76.94;94842.53;2074352;28;20279;-62
2024/02/23 10:46:40;;;;;;;2.95;0.88;;;;;;;4.32;77.95;94855.41;2081552;28;20201;-63
2024/02/23 10:47:43;;;;;;;5.88;1.25;;;;;;;4.46;77.59;94844.38;2077197;28;20272;-63
2024/02/23 10:48:44;;;;;;;12.13;1.35;;;;;;;4.41;77.24;94832.50;2079846;28;20276;-62
2024/02/23 10:49:47;;;;;;;6.68;1.23;;;;;;;4.52;77.02;94851.81;2079976;28;20222;-63
2024/02/23 10:50:49;;;;;;;12.93;1.85;;;;;;;4.45;77.42;94850.47;2079919;28;20201;-62
2024/02/23 10:51:51;;;;;;;2.03;1.00;;;;;;;4.37;77.31;94840.50;2071961;28;20760;-63
2024/02/23 10:52:54;;;;;;;3.40;1.00;;;;;;;4.45;77.71;94843.53;2073170;28;20668;-63
2024/02/23 10:53:57;;;;;;;5.90;0.95;;;;;;;4.32;77.63;94842.47;2079815;28;20301;-63
2024/02/23 10:55:00;;;;;;;3.97;1.00;;;;;;;4.48;76.74;94850.31;2079310;28;20278;-63
2024/02/23 10:56:04;;;;;;;3.45;1.00;;;;;;;4.64;77.30;94860.72;2078834;28;20595;-63
2024/02/23 10:57:06;;;;;;;9.93;1.50;;;;;;;4.68;76.90;94844.97;2079876;28;20929;-63
2024/02/23 10:58:11;;;;;;;8.98;1.38;;;;;;;4.64;76.97;94848.63;2080504;28;20599;-62
2024/02/23 10:59:12;;;;;;;3.88;1.05;;;;;;;4.72;77.02;94848.25;2078631;28;20714;-63
2024/02/23 11:00:15;;;;;;;5.75;1.23;;;;;;;4.72;77.20;94849.09;2077963;28;20220;-63
2024/02/23 11:01:19;;;;;;;6.47;1.10;;;;;;;4.70;77.15;94852.69;2083661;28;20196;-63
2024/02/23 11:02:22;;;;;;;8.45;1.33;;;;;;;4.77;77.11;94854.03;2081920;28;20197;-63
2024/02/23 11:03:24;;;;;;;7.47;1.50;;;;;;;4.75;77.37;94853.28;2082571;28;20194;-63
2024/02/23 11:04:26;;;;;;;2.13;1.27;;;;;;;4.84;77.01;94851.97;2079482;28;20193;-63
2024/02/23 11:05:28;;;;;;;9.15;1.30;;;;;;;4.81;77.09;94846.94;2079003;28;20198;-63
2024/02/23 11:06:33;;;;;;;6.18;1.38;;;;;;;4.89;77.41;94843.06;2080094;28;20372;-63
2024/02/23 11:07:38;;;;;;;12.43;1.80;;;;;;;4.60;76.38;94848.84;2080553;28;20255;-62
2024/02/23 11:08:39;;;;;;;2.45;0.80;;;;;;;4.73;76.43;94843.00;2077738;28;20224;-63
2024/02/23 11:09:42;;;;;;;5.90;1.58;;;;;;;4.67;75.81;94829.53;2075231;28;20235;-62
2024/02/23 11:10:53;;;;;;;8.05;1.20;;;;;;;4.63;76.05;94830.63;2077239;28;20197;-62
2024/02/23 11:11:56;;;;;;;8.80;1.20;;;;;;;4.81;76.28;94834.00;2081230;28;20558;-63
2024/02/23 11:13:02;;;;;;;18.02;1.75;;;;;;;4.88;75.42;94836.22;2081886;28;20208;-63
2024/02/23 11:14:08;;;;;;;3.70;1.10;;;;;;;4.84;75.61;94832.13;2078604;28;20233;-63
2024/02/23 11:15:26;;;;;;;5.10;1.25;;;;;;;4.71;75.65;94818.13;2071457;28;20244;-63
2024/02/23 11:16:28;;;;;;;7.68;1.20;;;;;;;4.76;75.67;94818.72;2069874;28;20240;-63
2024/02/23 11:17:32;;;;;;;3.33;1.05;;;;;;;4.81;75.82;94821.09;2069448;28;20281;-63
2024/02/23 11:18:35;;;;;;;3.00;0.88;;;;;;;4.72;74.75;94831.00;2072044;28;20198;-58
2024/02/23 11:19:39;;;;;;;9.05;1.50;;;;;;;4.79;75.57;94828.94;2071172;28;20206;-58
2024/02/23 11:20:43;;;;;;;3.15;1.05;;;;;;;4.72;74.96;94799.97;2067231;28;20281;-58
2024/02/23 11:21:52;;;;;;;6.32;1.05;;;;;;;4.71;75.48;94828.47;2067499;28;20202;-58
2024/02/23 11:22:54;;;;;;;5.63;1.05;;;;;;;4.48;74.96;94786.53;2067876;28;20573;-58
2024/02/23 11:23:55;;;;;;;5.20;1.17;;;;;;;4.76;75.32;94826.47;2068783;28;20278;-58
2024/02/23 11:28:53;;;;;;;8.68;1.10;;;;;;;4.87;74.69;94829.34;2100143;27;20554;-58
2024/02/23 11:30:05;;;;;;;3.40;1.00;;;;;;;4.84;73.80;94832.13;2085307;28;20413;-64
2024/02/23 11:31:14;;;;;;;6.55;0.90;;;;;;;4.82;74.49;94836.53;2079130;28;20204;-64
2024/02/23 11:32:17;;;;;;;6.40;1.20;;;;;;;4.81;75.12;94837.47;2076816;28;20204;-64
2024/02/23 11:33:26;;;;;;;6.18;1.45;;;;;;;4.81;74.40;94840.03;2080202;28;20217;-64
2024/02/23 11:34:28;;;;;;;8.68;1.63;;;;;;;4.73;75.34;94817.13;2075784;28;20211;-64
2024/02/23 11:35:29;;;;;;;11.77;1.40;;;;;;;4.65;75.16;94813.28;2070414;28;20205;-64
2024/02/23 11:38:32;;;;;;;9.75;1.20;;;;;;;4.91;74.66;94824.88;2094055;27;21045;-62
2024/02/23 11:39:35;;;;;;;9.55;1.85;;;;;;;5.03;74.49;94828.59;2086148;28;20334;-62
2024/02/23 11:40:37;;;;;;;7.35;1.45;;;;;;;5.17;74.08;94825.28;2071939;28;20193;-62
2024/02/23 11:41:39;;;;;;;9.15;1.20;;;;;;;5.10;74.21;94814.41;2073701;28;20207;-64
2024/02/23 11:42:42;;;;;;;4.30;0.80;;;;;;;5.06;73.59;94824.06;2074494;28;20711;-65
2024/02/23 11:43:46;;;;;;;13.25;1.92;;;;;;;5.02;73.59;94822.56;2074809;28;20263;-65
2024/02/23 11:44:50;;;;;;;6.07;1.05;;;;;;;5.13;74.21;94827.19;2070853;28;20743;-64
2024/02/23 11:47:19;;;;;;;6.80;1.10;;;;;;;5.06;74.96;94805.97;2099053;27;20550;-63
2024/02/23 11:50:13;;;;;;;4.78;1.35;;;;;;;5.31;74.34;94822.81;2087706;27;20592;-62
2024/02/23 11:52:47;;;;;;;9.65;1.35;;;;;;;4.97;74.36;94808.22;2093430;27;20547;-64
2024/02/23 11:53:49;;;;;;;6.85;1.58;;;;;;;5.10;74.73;94811.81;2089190;28;20651;-64
2024/02/23 11:54:51;;;;;;;12.70;1.38;;;;;;;5.22;74.63;94816.34;2073070;28;20226;-61
2024/02/23 11:55:53;;;;;;;5.28;1.55;;;;;;;5.36;73.98;94828.56;2067624;28;20552;-61
2024/02/23 11:56:54;;;;;;;6.15;1.58;;;;;;;5.32;73.12;94821.88;2074109;28;20197;-60
2024/02/23 11:57:56;;;;;;;6.25;1.15;;;;;;;5.30;73.91;94825.47;2074565;28;20208;-60
2024/02/23 11:59:09;;;;;;;9.13;2.38;;;;;;;5.64;73.52;94815.91;2073030;28;20216;-60
2024/02/23 12:00:11;;;;;;;9.13;1.25;;;;;;;5.88;72.71;94806.78;2065345;28;20588;-60
2024/02/23 12:01:13;;;;;;;6.45;1.60;;;;;;;5.82;72.78;94811.47;2065347;28;20202;-60
2024/02/23 12:02:14;;;;;;;6.40;1.15;;;;;;;5.82;72.11;94814.06;2066337;28;20202;-60
2024/02/23 12:03:17;;;;;;;4.28;1.27;;;;;;;5.73;71.37;94820.59;2070527;28;20255;-61
2024/02/23 12:04:18;;;;;;;7.20;1.00;;;;;;;5.91;71.68;94807.53;2066018;28;20199;-60
2024/02/23 12:05:20;;;;;;;2.42;0.90;;;;;;;5.92;71.67;94815.22;2064858;28;20234;-61
2024/02/23 12:06:22;;;;;;;8.93;1.35;;;;;;;5.92;72.11;94804.00;2073079;28;20258;-60
2024/02/23 12:07:25;;;;;;;8.25;2.25;;;;;;;5.99;71.68;94806.22;2072509;28;20190;-61
2024/02/23 12:08:41;;;;;;;11.57;1.75;;;;;;;5.80;72.03;94790.84;2074029;28;20202;-60
2024/02/23 12:09:43;;;;;;;15.48;3.88;;;;;;;5.95;72.12;94802.09;2073931;28;20251;-64
2024/02/23 12:10:45;;;;;;;4.78;1.10;;;;;;;6.17;72.04;94795.72;2074058;28;20624;-65
2024/02/23 12:11:46;;;;;;;8.38;1.27;;;;;;;6.06;71.61;94801.53;2073512;28;20198;-65
2024/02/23 12:12:49;;;;;;;3.28;0.90;;;;;;;6.16;71.69;94800.09;2070229;28;20217;-64
2024/02/23 12:13:51;;;;;;;12.02;1.27;;;;;;;6.23;71.77;94795.38;2071776;28;20209;-64
2024/02/23 12:14:53;;;;;;;8.05;1.65;;;;;;;6.15;71.10;94801.00;2069742;28;20245;-64
2024/02/23 12:15:55;;;;;;;3.25;1.25;;;;;;;6.00;71.41;94794.91;2070964;28;20940;-64
2024/02/23 12:16:57;;;;;;;6.22;1.30;;;;;;;6.04;71.36;94804.22;2072606;28;20720;-65
2024/02/23 12:18:02;;;;;;;8.77;1.27;;;;;;;6.18;71.29;94802.59;2075185;28;20252;-64
2024/02/23 12:19:03;;;;;;;4.63;1.50;;;;;;;6.27;71.13;94794.31;2074315;28;20194;-64
2024/02/23 12:20:07;;;;;;;7.93;1.45;;;;;;;6.25;71.18;94796.13;2069685;28;20230;-64
2024/02/23 12:21:09;;;;;;;4.88;1.30;;;;;;;6.55;70.30;94808.25;2071625;28;20202;-65
2024/02/23 12:22:12;;;;;;;6.63;1.40;;;;;;;6.32;69.63;94800.06;2070240;28;20204;-64
2024/02/23 12:23:13;;;;;;;5.88;1.10;;;;;;;6.17;70.26;94790.53;2071258;28;20199;-65
2024/02/23 12:24:15;;;;;;;6.88;1.42;;;;;;;6.09;70.84;94800.53;2072687;28;20257;-65
2024/02/23 12:25:17;;;;;;;11.15;1.55;;;;;;;6.15;71.32;94795.00;2075178;28;20252;-64
2024/02/23 12:26:19;;;;;;;12.13;1.50;;;;;;;6.17;72.39;94791.41;2074750;28;20692;-64
2024/02/23 12:27:22;;;;;;;5.28;1.30;;;;;;;6.08;71.50;94794.47;2073231;28;20197;-64
2024/02/23 12:28:24;;;;;;;9.65;1.83;;;;;;;5.87;71.25;94799.91;2072796;28;20771;-64
2024/02/23 12:29:26;;;;;;;3.83;1.10;;;;;;;5.89;71.95;94792.06;2072777;28;20209;-64
2024/02/23 12:30:31;;;;;;;10.98;1.52;;;;;;;5.88;71.93;94799.00;2073658;28;20286;-64
2024/02/23 12:31:33;;;;;;;4.68;1.40;;;;;;;5.71;72.32;94792.19;2070117;28;20251;-64
2024/02/23 12:36:36;;;;;;;10.45;1.13;;;;;;;5.48;73.65;94777.88;2105390;27;21048;-65
2024/02/23 12:40:21;;;;;;;2.72;0.80;;;;;;;5.55;73.87;94796.53;2065423;28;20568;-64
2024/02/23 12:43:26;;;;;;;10.70;1.63;;;;;;;5.51;74.08;94800.19;2083635;28;20578;-62
2024/02/23 12:44:27;;;;;;;8.30;1.30;;;;;;;5.62;73.83;94797.03;2084745;28;20200;-60
2024/02/23 12:45:28;;;;;;;9.50;1.40;;;;;;;5.73;73.53;94799.88;2077478;28;20238;-60
2024/02/23 12:46:30;;;;;;;6.07;1.45;;;;;;;5.66;73.50;94790.75;2073185;28;20248;-60
2024/02/23 12:47:31;;;;;;;10.45;1.45;;;;;;;5.67;73.09;94793.25;2072593;28;20217;-60
2024/02/23 12:48:33;;;;;;;9.13;1.40;;;;;;;5.62;73.10;94792.66;2075677;28;20293;-60
2024/02/23 12:49:35;;;;;;;6.53;1.05;;;;;;;5.72;73.77;94795.59;2072564;28;20228;-60
2024/02/23 12:50:36;;;;;;;10.23;1.25;;;;;;;5.68;73.56;94792.34;2071706;28;20248;-64
2024/02/23 12:51:38;;;;;;;7.32;1.45;;;;;;;5.78;73.62;94797.03;2074330;28;20347;-64
2024/02/23 12:52:39;;;;;;;8.73;1.50;;;;;;;5.67;73.07;94793.25;2074114;28;20205;-64
2024/02/23 12:53:42;;;;;;;8.07;1.63;;;;;;;5.71;73.62;94794.78;2074087;28;20198;-65
2024/02/23 12:56:31;;;;;;;9.82;1.30;;;;;;;5.72;73.78;94801.59;2082572;28;21513;-62
2024/02/23 12:59:18;;;;;;;8.38;1.67;;;;;;;5.58;74.40;94793.75;2099900;27;20574;-62
2024/02/23 13:02:07;;;;;;;8.25;1.55;;;;;;;5.72;72.74;94803.38;2084657;28;20572;-61
2024/02/23 13:04:57;;;;;;;4.28;1.33;;;;;;;5.65;72.46;94802.03;2081711;28;20561;-63
2024/02/23 13:05:59;;;;;;;7.80;1.42;;;;;;;5.72;72.52;94804.19;2080162;28;20374;-62
2024/02/23 13:07:00;;;;;;;6.03;1.50;;;;;;;5.68;72.08;94797.50;2080717;28;20228;-63
2024/02/23 13:08:02;;;;;;;14.20;1.35;;;;;;;5.69;71.76;94782.81;2080825;28;20229;-63
2024/02/23 13:09:04;;;;;;;7.10;1.20;;;;;;;5.71;71.50;94778.38;2081901;28;20201;-64
2024/02/23 13:10:06;;;;;;;6.63;1.10;;;;;;;5.82;71.44;94806.28;2076498;28;20274;-63
2024/02/23 13:11:08;;;;;;;7.15;1.40;;;;;;;5.96;71.87;94813.31;2085886;28;20204;-63
2024/02/23 13:13:31;;;;;;;8.27;1.52;;;;;;;5.94;71.13;94808.22;2083602;28;20575;-62
2024/02/23 13:44:17;;;;;;;6.20;1.25;;;;;;;5.59;72.95;94786.81;2091648;27;20567;-58
2024/02/23 13:46:43;;;;;;;18.65;2.13;;;;;;;5.53;72.42;94777.63;2108917;27;20567;-60
2024/02/23 13:47:59;;;;;;;13.18;1.40;;;;;;;5.61;71.67;94778.06;2102715;28;20215;-60
2024/02/23 13:49:08;;;;;;;4.28;1.30;;;;;;;5.66;71.28;94777.78;2104994;28;20198;-60
2024/02/23 13:50:10;;;;;;;12.60;1.90;;;;;;;5.68;71.45;94768.19;2089599;28;20277;-60
2024/02/23 13:52:38;;;;;;;6.70;1.25;;;;;;;5.75;71.49;94760.91;2083968;28;20567;-61
2024/02/23 13:56:42;;;;;;;4.82;1.40;;;;;;;5.69;70.98;94757.75;2085067;28;20557;-58
2024/02/23 13:59:07;;;;;;;17.92;1.42;;;;;;;5.67;71.80;94738.88;2099963;27;20560;-59
2024/02/23 14:00:12;;;;;;;4.50;1.33;;;;;;;5.68;71.26;94744.91;2088523;28;20212;-59
2024/02/23 14:01:14;;;;;;;6.28;1.20;;;;;;;5.71;71.39;94752.47;2089405;28;20196;-59
2024/02/23 14:02:16;;;;;;;7.05;1.52;;;;;;;5.73;71.06;94748.06;2089070;28;20203;-61
2024/02/23 14:03:18;;;;;;;7.97;1.50;;;;;;;5.69;71.26;94741.38;2089889;28;20705;-59
2024/02/23 14:04:20;;;;;;;7.82;1.55;;;;;;;5.98;71.08;94737.19;2090589;28;20712;-59
2024/02/23 14:05:21;;;;;;;5.38;1.60;;;;;;;6.43;70.65;94746.75;2081833;28;20610;-59
2024/02/23 14:06:23;;;;;;;3.67;1.15;;;;;;;6.98;69.01;94733.09;2079694;28;20621;-59
2024/02/23 14:07:25;;;;;;;6.80;1.65;;;;;;;7.80;66.36;94747.94;2077868;28;20200;-60